Time;durP1;ratioP1;P1;durP2;ratioP2;P2;SDS_P1;SDS_P2;PMS_P1;PMS_P2;Temp;Humidity;BMP_temperature;BMP_pressure;BME280_temperature;BME280_humidity;BME280_pressure;Samples;Min_cycle;Max_cycle;Signal;HPM_P1;HPM_P2
2022/08/17 00:00:59;;;;;;;12.40;8.80;;;20.70;99.90;;;;;;4998734;28;20203;-67
2022/08/17 00:03:30;;;;;;;12.55;9.23;;;20.60;99.90;;;;;;4998690;28;20247;-67
2022/08/17 00:06:00;;;;;;;12.68;8.98;;;20.40;99.90;;;;;;5016785;28;20171;-67
2022/08/17 00:08:29;;;;;;;11.93;9.18;;;20.30;99.90;;;;;;4997505;28;20743;-66
2022/08/17 00:10:55;;;;;;;12.38;9.30;;;20.20;99.90;;;;;;5016002;28;20199;-66
2022/08/17 00:13:29;;;;;;;11.50;9.30;;;20.10;99.90;;;;;;5016415;28;20182;-67
2022/08/17 00:15:58;;;;;;;11.82;9.65;;;20.10;99.90;;;;;;5016499;28;20194;-67
2022/08/17 00:18:26;;;;;;;16.38;9.55;;;20.00;99.90;;;;;;5031229;28;20637;-67
2022/08/17 00:20:53;;;;;;;14.48;9.25;;;20.10;99.90;;;;;;5015793;28;20254;-67
2022/08/17 00:23:19;;;;;;;11.20;9.50;;;20.10;99.90;;;;;;5016098;28;20184;-67
2022/08/17 00:25:45;;;;;;;15.80;9.90;;;20.00;99.90;;;;;;5015660;28;20608;-67
2022/08/17 00:28:16;;;;;;;14.25;9.27;;;20.00;99.90;;;;;;5016370;28;20223;-67
2022/08/17 00:30:46;;;;;;;11.80;9.23;;;19.90;99.90;;;;;;5016146;28;20283;-66
2022/08/17 00:33:17;;;;;;;14.05;9.52;;;20.00;99.90;;;;;;5016280;28;20168;-66
2022/08/17 00:35:45;;;;;;;12.95;8.77;;;19.90;99.90;;;;;;5015872;28;20249;-67
2022/08/17 00:38:11;;;;;;;12.63;9.20;;;20.00;99.90;;;;;;5015997;28;20648;-67
2022/08/17 00:40:57;;;;;;;13.55;9.70;;;20.00;99.90;;;;;;5015496;28;20199;-67
2022/08/17 00:43:39;;;;;;;11.88;9.52;;;20.00;99.90;;;;;;5016033;28;20160;-67
2022/08/17 00:46:15;;;;;;;12.07;9.43;;;20.00;99.90;;;;;;5031020;28;20172;-67
2022/08/17 00:48:41;;;;;;;15.85;9.52;;;20.00;99.90;;;;;;5015837;28;20207;-67
2022/08/17 00:51:19;;;;;;;11.77;8.85;;;19.90;99.90;;;;;;5016164;28;20559;-67
2022/08/17 00:53:52;;;;;;;12.15;9.55;;;19.90;99.90;;;;;;4998252;28;20203;-67
2022/08/17 00:56:27;;;;;;;10.07;8.85;;;19.90;99.90;;;;;;5016335;28;20207;-66
2022/08/17 00:58:53;;;;;;;10.73;9.02;;;20.00;99.90;;;;;;4998812;28;20176;-66
2022/08/17 01:01:20;;;;;;;13.25;8.65;;;20.00;99.90;;;;;;5016129;28;20199;-67
2022/08/17 01:03:48;;;;;;;11.38;8.82;;;20.00;99.90;;;;;;5016283;28;20180;-67
2022/08/17 01:06:14;;;;;;;10.35;9.25;;;20.00;99.90;;;;;;5015513;28;20175;-66
2022/08/17 01:08:40;;;;;;;12.88;9.35;;;20.00;99.90;;;;;;5015205;28;20580;-66
2022/08/17 01:11:07;;;;;;;11.23;8.98;;;20.10;99.90;;;;;;5015142;28;20223;-68
2022/08/17 01:13:39;;;;;;;13.02;9.85;;;20.10;99.90;;;;;;5015383;28;20176;-67
2022/08/17 01:16:23;;;;;;;11.68;8.82;;;20.10;99.90;;;;;;4997762;28;20288;-66
2022/08/17 01:18:53;;;;;;;13.52;9.38;;;20.10;99.90;;;;;;5014874;28;20164;-67
2022/08/17 01:21:42;;;;;;;11.85;9.00;;;20.00;99.90;;;;;;5015947;28;20266;-66
2022/08/17 01:24:08;;;;;;;16.40;9.63;;;20.00;99.90;;;;;;5015196;28;20165;-67
2022/08/17 01:26:35;;;;;;;17.20;10.13;;;19.90;99.90;;;;;;4997397;28;20184;-66
2022/08/17 01:29:03;;;;;;;14.25;9.70;;;19.90;99.90;;;;;;5014977;28;20593;-66
2022/08/17 01:31:34;;;;;;;19.23;10.88;;;19.90;99.90;;;;;;5015419;28;20199;-66
2022/08/17 01:34:04;;;;;;;12.88;9.70;;;19.80;99.90;;;;;;5015449;28;20163;-66
2022/08/17 01:36:30;;;;;;;12.65;9.43;;;19.80;99.90;;;;;;5014914;28;20322;-66
2022/08/17 01:38:56;;;;;;;13.77;9.85;;;19.80;99.90;;;;;;5014853;28;20207;-66
2022/08/17 01:41:22;;;;;;;15.60;10.65;;;19.80;99.90;;;;;;4996941;28;20195;-67
2022/08/17 01:43:59;;;;;;;11.77;9.88;;;19.70;99.90;;;;;;4997100;28;20179;-66
2022/08/17 01:46:32;;;;;;;15.05;9.65;;;19.70;99.90;;;;;;5015574;28;20156;-67
2022/08/17 01:48:59;;;;;;;14.73;10.25;;;19.70;99.90;;;;;;4997124;28;20172;-66
2022/08/17 01:51:31;;;;;;;16.55;10.68;;;19.60;99.90;;;;;;5014835;28;20196;-67
2022/08/17 01:54:04;;;;;;;11.45;9.95;;;19.50;99.90;;;;;;4996970;28;20172;-66
2022/08/17 01:56:32;;;;;;;11.20;9.82;;;19.50;99.90;;;;;;4996725;28;20298;-67
2022/08/17 01:58:58;;;;;;;12.98;10.25;;;19.40;99.90;;;;;;5014513;28;20203;-67
2022/08/17 02:01:27;;;;;;;12.70;9.90;;;19.40;99.90;;;;;;5014355;28;20219;-67
2022/08/17 02:03:54;;;;;;;18.83;10.63;;;19.40;99.90;;;;;;5014456;28;20255;-66
2022/08/17 02:06:20;;;;;;;14.13;10.20;;;19.40;99.90;;;;;;4997105;28;20657;-67
2022/08/17 02:08:46;;;;;;;14.68;9.57;;;19.40;99.90;;;;;;5014831;28;20183;-67
2022/08/17 02:11:16;;;;;;;12.07;10.50;;;19.40;99.90;;;;;;5015099;28;20191;-66
2022/08/17 02:13:43;;;;;;;12.63;10.75;;;19.30;99.90;;;;;;5015155;28;20626;-66
2022/08/17 02:16:09;;;;;;;14.57;10.07;;;19.30;99.90;;;;;;5014610;28;20211;-66
2022/08/17 02:18:35;;;;;;;13.90;10.88;;;19.30;99.90;;;;;;4997362;28;20182;-66
2022/08/17 02:21:01;;;;;;;13.63;10.23;;;19.20;99.90;;;;;;4997119;28;20678;-66
2022/08/17 02:23:29;;;;;;;13.15;10.25;;;19.20;99.90;;;;;;5014896;28;20297;-66
2022/08/17 02:25:58;;;;;;;16.15;11.02;;;19.20;99.90;;;;;;5014588;28;20186;-66
2022/08/17 02:28:24;;;;;;;15.30;10.60;;;19.20;99.90;;;;;;5014578;28;20176;-66
2022/08/17 02:30:50;;;;;;;13.00;10.60;;;19.20;99.90;;;;;;5015476;28;20570;-66
2022/08/17 02:33:15;;;;;;;16.55;10.35;;;19.20;99.90;;;;;;5000913;28;20278;-66
2022/08/17 02:35:41;;;;;;;15.18;10.27;;;19.00;99.90;;;;;;5018830;28;20203;-67
2022/08/17 02:38:08;;;;;;;13.25;10.73;;;18.90;99.90;;;;;;5018610;28;20250;-66
2022/08/17 02:40:35;;;;;;;15.43;11.00;;;18.80;99.90;;;;;;5018156;28;20192;-66
2022/08/17 02:43:03;;;;;;;13.25;9.95;;;18.70;99.90;;;;;;5018762;28;20168;-66
2022/08/17 02:45:28;;;;;;;15.52;10.63;;;18.70;99.90;;;;;;5018404;28;20199;-67
2022/08/17 02:47:54;;;;;;;13.07;9.65;;;18.60;99.90;;;;;;5018166;28;20168;-66
2022/08/17 02:50:23;;;;;;;15.75;10.10;;;18.60;99.90;;;;;;5000631;28;20226;-67
2022/08/17 02:52:51;;;;;;;14.50;9.50;;;18.50;99.90;;;;;;5018130;28;20180;-66
2022/08/17 02:55:25;;;;;;;12.65;10.23;;;18.50;99.90;;;;;;5000407;28;20180;-66
2022/08/17 02:57:51;;;;;;;16.80;11.48;;;18.50;99.90;;;;;;5017814;28;20164;-67
2022/08/17 03:00:29;;;;;;;13.35;10.80;;;18.50;99.90;;;;;;5017847;28;20281;-67
2022/08/17 03:02:56;;;;;;;14.07;10.27;;;18.40;99.90;;;;;;5018336;28;20525;-67
2022/08/17 03:05:25;;;;;;;13.52;9.73;;;18.40;99.90;;;;;;5018197;28;20176;-66
2022/08/17 03:07:51;;;;;;;14.98;10.07;;;18.40;99.90;;;;;;4999916;28;20183;-66
2022/08/17 03:10:18;;;;;;;13.27;10.05;;;18.40;99.90;;;;;;5017848;28;20219;-66
2022/08/17 03:12:45;;;;;;;14.43;10.85;;;18.40;99.90;;;;;;5017474;28;20176;-67
2022/08/17 03:15:17;;;;;;;13.73;9.95;;;18.40;99.90;;;;;;4999799;28;20270;-66
2022/08/17 03:17:44;;;;;;;12.10;9.88;;;18.40;99.90;;;;;;5017709;28;20639;-66
2022/08/17 03:20:10;;;;;;;15.60;10.80;;;18.40;99.90;;;;;;5017564;28;20263;-66
2022/08/17 03:22:42;;;;;;;13.05;10.55;;;18.40;99.90;;;;;;5000321;28;20186;-66
2022/08/17 03:25:12;;;;;;;18.52;10.27;;;18.40;99.90;;;;;;5016586;28;20517;-66
2022/08/17 03:27:38;;;;;;;12.50;9.57;;;18.40;99.90;;;;;;5016982;28;20636;-66
2022/08/17 03:30:06;;;;;;;16.83;11.35;;;18.40;99.90;;;;;;4998737;28;20199;-66
2022/08/17 03:32:41;;;;;;;12.98;10.07;;;18.40;99.90;;;;;;4998696;28;20176;-66
2022/08/17 03:35:09;;;;;;;15.32;11.18;;;18.40;99.90;;;;;;5016465;28;20186;-64
2022/08/17 03:37:35;;;;;;;15.02;10.77;;;18.40;99.90;;;;;;5016270;28;20203;-64
2022/08/17 03:40:03;;;;;;;12.88;9.90;;;18.30;99.90;;;;;;5016365;28;20191;-64
2022/08/17 03:42:28;;;;;;;14.07;10.27;;;18.40;99.90;;;;;;5031104;28;20183;-64
2022/08/17 03:44:56;;;;;;;13.82;10.38;;;18.40;99.90;;;;;;5016304;28;20168;-64
2022/08/17 03:58:23;;;;;;;12.77;10.32;;;18.30;99.90;;;;;;5014982;28;20175;-64
2022/08/17 04:00:49;;;;;;;12.70;10.50;;;18.30;99.90;;;;;;5014828;28;20657;-64
2022/08/17 04:03:16;;;;;;;13.93;10.13;;;18.30;99.90;;;;;;5015059;28;20203;-64
2022/08/17 04:05:42;;;;;;;12.43;9.88;;;18.30;99.90;;;;;;5014940;28;20553;-64
2022/08/17 04:08:09;;;;;;;12.80;10.88;;;18.30;99.90;;;;;;5014686;28;20187;-64
2022/08/17 04:10:35;;;;;;;14.35;10.13;;;18.30;99.90;;;;;;5014515;28;20199;-65
2022/08/17 04:13:01;;;;;;;16.00;11.30;;;18.30;99.90;;;;;;5014770;28;20176;-64
2022/08/17 04:15:28;;;;;;;15.77;11.45;;;18.30;99.90;;;;;;5014760;28;20195;-64
2022/08/17 04:17:54;;;;;;;12.02;10.73;;;18.30;99.90;;;;;;5014631;28;20174;-64
2022/08/17 04:20:21;;;;;;;13.13;10.65;;;18.20;99.90;;;;;;5015365;28;20184;-64
2022/08/17 04:23:00;;;;;;;15.02;10.82;;;18.20;99.90;;;;;;4997047;28;20621;-64
2022/08/17 04:25:27;;;;;;;12.90;9.55;;;18.20;99.90;;;;;;5015384;28;20186;-64
2022/08/17 04:27:54;;;;;;;13.75;10.70;;;18.20;99.90;;;;;;4996782;28;20184;-64
2022/08/17 04:30:20;;;;;;;13.32;11.30;;;18.20;99.90;;;;;;5014413;28;20188;-64
2022/08/17 04:33:07;;;;;;;13.27;10.38;;;18.10;99.90;;;;;;5014358;28;20251;-64
2022/08/17 04:36:04;;;;;;;14.07;10.18;;;18.10;99.90;;;;;;5014165;28;20243;-64
2022/08/17 04:38:33;;;;;;;14.43;10.25;;;18.10;99.90;;;;;;4996778;28;20188;-64
2022/08/17 04:43:45;;;;;;;13.88;10.10;;;18.10;99.90;;;;;;5014589;28;20163;-64
2022/08/17 04:46:16;;;;;;;14.35;10.48;;;18.10;99.90;;;;;;5014011;28;20187;-65
2022/08/17 04:48:46;;;;;;;15.15;10.57;;;18.20;99.90;;;;;;5014225;28;20287;-64
2022/08/17 04:51:45;;;;;;;18.77;11.07;;;18.20;99.90;;;;;;5013812;28;20223;-64
2022/08/17 04:54:14;;;;;;;13.75;10.57;;;18.30;99.90;;;;;;5002073;28;20727;-64
2022/08/17 04:56:40;;;;;;;13.50;10.50;;;18.30;99.90;;;;;;4969318;28;1292487;-64
2022/08/17 04:59:09;;;;;;;14.85;10.80;;;18.20;99.90;;;;;;5014984;28;20182;-64
2022/08/17 05:01:37;;;;;;;16.15;10.00;;;18.20;99.90;;;;;;5014507;28;20668;-64
2022/08/17 05:04:06;;;;;;;15.25;11.07;;;18.20;99.90;;;;;;5014798;28;20234;-64
2022/08/17 05:06:32;;;;;;;15.50;10.40;;;18.20;99.90;;;;;;5014561;28;20191;-64
2022/08/17 05:08:59;;;;;;;15.23;10.15;;;18.30;99.90;;;;;;5014326;28;20180;-64
2022/08/17 05:11:26;;;;;;;15.43;10.27;;;18.30;99.90;;;;;;5014192;28;20203;-64
2022/08/17 05:13:54;;;;;;;15.77;11.18;;;18.30;99.90;;;;;;5014281;28;20171;-64
2022/08/17 05:16:21;;;;;;;14.98;11.10;;;18.40;99.90;;;;;;4996619;28;20246;-64
2022/08/17 05:18:46;;;;;;;12.43;10.10;;;18.30;99.90;;;;;;5014679;28;20190;-64
2022/08/17 05:21:13;;;;;;;13.77;10.90;;;18.40;99.90;;;;;;5014216;28;20192;-64
2022/08/17 05:23:39;;;;;;;13.93;10.65;;;18.40;99.90;;;;;;5014674;28;20260;-64
2022/08/17 05:26:06;;;;;;;15.98;11.52;;;18.40;99.90;;;;;;5014327;28;20180;-64
2022/08/17 05:28:32;;;;;;;14.50;10.50;;;18.50;99.90;;;;;;5014416;28;20263;-64
2022/08/17 05:31:00;;;;;;;14.15;10.30;;;18.50;99.90;;;;;;5013965;28;20230;-64
2022/08/17 05:33:32;;;;;;;12.38;9.77;;;18.50;99.90;;;;;;5014016;28;20203;-65
2022/08/17 05:35:59;;;;;;;12.98;10.27;;;18.60;99.90;;;;;;5014202;28;20249;-65
2022/08/17 05:38:27;;;;;;;14.30;10.68;;;18.60;99.90;;;;;;5013939;28;20210;-63
2022/08/17 05:40:55;;;;;;;14.55;10.60;;;18.60;99.90;;;;;;5014237;28;20223;-63
2022/08/17 05:43:29;;;;;;;13.18;10.02;;;18.70;99.90;;;;;;5015283;28;20180;-64
2022/08/17 05:46:22;;;;;;;13.73;10.48;;;18.70;99.90;;;;;;5014652;28;20190;-63
2022/08/17 05:48:53;;;;;;;12.00;9.57;;;18.80;99.90;;;;;;5014694;28;20164;-65
2022/08/17 05:51:28;;;;;;;13.60;9.70;;;18.80;99.90;;;;;;5014077;28;20274;-65
2022/08/17 05:54:05;;;;;;;12.77;10.32;;;18.90;99.90;;;;;;5014052;28;20195;-65
2022/08/17 05:56:36;;;;;;;11.98;9.43;;;18.90;99.90;;;;;;5013299;28;20318;-65
2022/08/17 05:59:15;;;;;;;12.43;9.95;;;19.00;99.90;;;;;;5013570;28;20691;-65
2022/08/17 06:02:19;;;;;;;10.75;9.40;;;19.10;99.90;;;;;;5013612;28;20672;-65
2022/08/17 06:05:00;;;;;;;12.68;9.73;;;19.10;99.90;;;;;;4985354;28;20183;-65
2022/08/17 06:07:52;;;;;;;15.45;9.45;;;19.20;99.90;;;;;;5013287;28;20171;-65
2022/08/17 06:10:30;;;;;;;15.10;9.80;;;19.40;99.90;;;;;;5013706;28;20199;-65
2022/08/17 06:13:13;;;;;;;13.23;9.40;;;19.50;99.90;;;;;;4995738;28;20171;-65
2022/08/17 06:16:01;;;;;;;13.38;10.02;;;19.50;99.90;;;;;;5014083;28;20558;-65
2022/08/17 06:18:35;;;;;;;11.80;9.07;;;19.60;99.90;;;;;;4996002;28;20165;-65
2022/08/17 06:21:05;;;;;;;13.70;9.50;;;19.70;99.90;;;;;;5013692;28;20227;-65
2022/08/17 06:23:31;;;;;;;11.55;9.82;;;19.70;99.90;;;;;;5013804;28;20225;-65
2022/08/17 06:26:02;;;;;;;11.85;9.13;;;19.80;99.90;;;;;;5013830;28;20247;-64
2022/08/17 06:28:42;;;;;;;9.48;8.40;;;19.80;99.90;;;;;;5013375;28;20167;-64
2022/08/17 06:31:21;;;;;;;11.60;8.90;;;19.90;99.90;;;;;;5028587;28;20202;-64
2022/08/17 06:33:47;;;;;;;11.77;9.52;;;20.00;99.90;;;;;;5013871;28;20306;-64
2022/08/17 06:36:29;;;;;;;11.90;9.25;;;20.00;99.90;;;;;;5028479;28;20688;-64
2022/08/17 06:39:34;;;;;;;11.68;8.30;;;20.10;99.90;;;;;;5013383;28;20167;-64
2022/08/17 06:42:25;;;;;;;12.68;8.75;;;20.20;99.90;;;;;;5013300;28;20152;-64
2022/08/17 06:45:21;;;;;;;11.82;8.70;;;20.40;99.90;;;;;;4995811;28;20211;-64
2022/08/17 06:48:23;;;;;;;10.02;8.05;;;20.50;99.90;;;;;;4994798;28;20195;-64
2022/08/17 06:51:25;;;;;;;12.75;8.02;;;20.60;99.90;;;;;;5010723;28;20218;-64
2022/08/17 06:54:01;;;;;;;11.15;7.85;;;20.60;99.90;;;;;;5009332;28;20668;-64
2022/08/17 06:56:33;;;;;;;12.25;7.30;;;20.70;99.90;;;;;;4995203;28;20215;-64
2022/08/17 06:59:00;;;;;;;10.75;7.60;;;20.80;99.90;;;;;;5013549;28;20187;-64
2022/08/17 07:01:34;;;;;;;9.63;7.95;;;20.90;99.90;;;;;;4995794;28;20231;-64
2022/08/17 07:04:24;;;;;;;9.00;7.32;;;20.90;99.90;;;;;;5013451;28;20183;-64
2022/08/17 07:06:55;;;;;;;11.02;8.40;;;21.00;99.90;;;;;;5013304;28;20176;-65
2022/08/17 07:09:36;;;;;;;11.57;8.00;;;21.10;99.90;;;;;;5013418;28;20168;-64
2022/08/17 07:12:22;;;;;;;14.52;8.73;;;21.10;99.90;;;;;;5013847;28;20187;-63
2022/08/17 07:14:58;;;;;;;12.48;8.55;;;21.10;99.90;;;;;;5013755;28;20652;-61
2022/08/17 07:17:26;;;;;;;10.05;7.68;;;21.20;99.90;;;;;;5030036;28;20253;-64
2022/08/17 07:20:07;;;;;;;10.07;7.68;;;21.30;99.90;;;;;;5017683;28;20258;-64
2022/08/17 07:23:02;;;;;;;10.00;7.22;;;21.30;99.90;;;;;;5031863;28;20637;-64
2022/08/17 07:25:29;;;;;;;10.05;7.55;;;21.40;99.90;;;;;;5017046;28;20187;-64
2022/08/17 07:27:59;;;;;;;14.57;7.75;;;21.50;99.90;;;;;;5017344;28;20176;-63
2022/08/17 07:30:52;;;;;;;11.45;7.78;;;21.60;99.90;;;;;;5018161;28;20180;-63
2022/08/17 07:33:29;;;;;;;11.73;7.13;;;21.80;99.90;;;;;;5014480;28;20683;-62
2022/08/17 07:35:57;;;;;;;9.15;6.78;;;21.90;99.90;;;;;;5016889;28;20558;-61
2022/08/17 07:38:27;;;;;;;19.33;8.20;;;22.10;99.90;;;;;;5018753;28;20367;-61
2022/08/17 07:41:05;;;;;;;13.80;8.02;;;22.20;99.90;;;;;;4998973;28;20200;-64
2022/08/17 07:43:33;;;;;;;12.55;7.65;;;22.20;99.90;;;;;;5017129;28;20156;-64
2022/08/17 07:49:07;;;;;;;11.77;6.97;;;22.50;99.90;;;;;;5016465;28;20175;-63
2022/08/17 07:51:39;;;;;;;12.45;6.55;;;22.70;99.90;;;;;;4997979;28;20203;-63
2022/08/17 07:54:14;;;;;;;9.23;6.72;;;22.80;99.90;;;;;;5016017;28;20642;-63
2022/08/17 07:56:53;;;;;;;8.18;6.43;;;23.00;99.90;;;;;;5015500;28;20229;-63
2022/08/17 07:59:20;;;;;;;10.18;6.40;;;23.10;99.90;;;;;;4998735;28;20532;-65
2022/08/17 08:02:14;;;;;;;8.15;6.70;;;23.30;99.90;;;;;;4998544;28;20195;-65
2022/08/17 08:04:59;;;;;;;9.98;6.05;;;23.40;99.90;;;;;;4988826;28;20184;-65
2022/08/17 08:07:33;;;;;;;9.98;6.82;;;23.60;99.90;;;;;;5016037;28;20182;-65
2022/08/17 08:10:12;;;;;;;14.13;7.00;;;23.70;99.90;;;;;;4998333;28;20206;-65
2022/08/17 08:12:40;;;;;;;11.63;6.50;;;23.80;99.90;;;;;;5015980;28;20160;-65
2022/08/17 08:15:20;;;;;;;9.55;5.65;;;23.80;99.90;;;;;;4998172;28;20187;-66
2022/08/17 08:17:58;;;;;;;11.88;6.38;;;24.00;99.90;;;;;;5016143;28;20192;-65
2022/08/17 08:20:48;;;;;;;11.35;6.95;;;24.00;99.90;;;;;;5015669;28;20195;-65
2022/08/17 08:23:35;;;;;;;9.95;6.20;;;24.10;99.90;;;;;;5015869;28;20159;-65
2022/08/17 08:26:12;;;;;;;13.88;6.90;;;24.30;99.90;;;;;;4997914;28;20243;-66
2022/08/17 08:28:42;;;;;;;11.55;6.35;;;24.40;99.90;;;;;;4997071;28;20258;-65
2022/08/17 08:31:46;;;;;;;12.35;5.65;;;24.50;99.90;;;;;;5015567;28;20279;-65
2022/08/17 08:34:32;;;;;;;9.18;5.35;;;24.60;99.90;;;;;;4978546;28;20215;-66
2022/08/17 08:37:09;;;;;;;6.82;5.30;;;24.90;99.90;;;;;;4998088;28;20266;-66
2022/08/17 08:40:07;;;;;;;7.63;5.22;;;25.10;99.90;;;;;;5030770;28;20163;-65
2022/08/17 08:42:50;;;;;;;9.35;5.60;;;25.30;99.90;;;;;;4997515;28;20192;-66
2022/08/17 08:45:29;;;;;;;7.93;5.43;;;25.40;99.90;;;;;;5015438;28;20503;-65
2022/08/17 08:48:29;;;;;;;7.93;4.88;;;25.50;99.90;;;;;;5015239;28;20164;-66
2022/08/17 08:51:16;;;;;;;8.73;5.13;;;25.80;99.90;;;;;;5014911;28;20233;-66
2022/08/17 08:53:54;;;;;;;6.97;5.25;;;26.20;99.90;;;;;;5015080;28;20168;-66
2022/08/17 08:56:38;;;;;;;8.90;4.97;;;26.40;99.90;;;;;;4997076;28;20214;-66
2022/08/17 08:59:33;;;;;;;7.25;5.00;;;26.60;99.90;;;;;;4997381;28;20517;-66
2022/08/17 09:02:19;;;;;;;6.47;5.15;;;26.90;99.90;;;;;;5015380;28;20176;-66
2022/08/17 09:05:13;;;;;;;8.80;5.20;;;27.00;99.90;;;;;;5015217;28;20160;-66
2022/08/17 09:07:57;;;;;;;11.32;5.07;;;27.00;99.90;;;;;;4976844;28;20262;-67
2022/08/17 09:10:51;;;;;;;8.63;5.05;;;27.20;99.90;;;;;;5010405;28;20199;-65
2022/08/17 09:13:38;;;;;;;10.40;5.60;;;27.30;99.90;;;;;;4995014;28;20160;-66
2022/08/17 09:16:14;;;;;;;7.07;5.15;;;27.30;99.90;;;;;;4977427;28;20746;-66
2022/08/17 09:18:50;;;;;;;6.70;5.35;;;27.30;99.90;;;;;;4994635;28;20195;-63
2022/08/17 09:21:55;;;;;;;10.13;5.15;;;27.10;99.90;;;;;;5009714;28;20799;-63
2022/08/17 09:24:32;;;;;;;8.05;5.43;;;26.90;99.90;;;;;;4994520;28;20161;-63
2022/08/17 09:27:20;;;;;;;11.13;5.18;;;26.80;99.90;;;;;;4994237;28;20164;-63
2022/08/17 09:29:56;;;;;;;19.13;5.63;;;26.70;99.90;;;;;;4994898;28;20247;-65
2022/08/17 09:32:37;;;;;;;6.70;4.85;;;26.60;99.90;;;;;;4995067;28;20594;-66
2022/08/17 09:35:09;;;;;;;7.80;5.35;;;26.60;99.90;;;;;;4995138;28;20168;-66
2022/08/17 09:38:00;;;;;;;8.10;4.38;;;26.60;99.90;;;;;;5006565;28;20219;-65
2022/08/17 09:40:38;;;;;;;11.32;5.35;;;26.50;99.90;;;;;;4996566;28;20294;-65
2022/08/17 09:43:42;;;;;;;6.45;4.70;;;26.30;99.90;;;;;;5014001;28;20171;-66
2022/08/17 09:46:16;;;;;;;12.27;5.10;;;26.20;99.90;;;;;;5014556;28;20160;-65
2022/08/17 09:48:56;;;;;;;8.77;4.68;;;26.10;99.90;;;;;;5014634;28;20196;-65
2022/08/17 09:51:44;;;;;;;8.80;4.18;;;25.90;99.90;;;;;;4996090;28;20200;-65
2022/08/17 09:54:32;;;;;;;5.93;4.47;;;25.80;99.90;;;;;;4996241;28;20176;-65
2022/08/17 09:57:06;;;;;;;6.90;4.50;;;25.60;99.90;;;;;;4995972;28;20693;-65
2022/08/17 09:59:43;;;;;;;6.38;4.72;;;25.50;99.90;;;;;;5013841;28;20198;-65
2022/08/17 10:02:50;;;;;;;7.43;4.43;;;25.50;99.90;;;;;;5029267;28;20176;-65
2022/08/17 10:05:45;;;;;;;5.95;4.50;;;25.40;99.90;;;;;;5014055;28;20152;-65
2022/08/17 10:08:14;;;;;;;6.05;4.60;;;25.30;99.90;;;;;;5014247;28;20214;-65
2022/08/17 10:11:19;;;;;;;9.35;4.70;;;25.30;99.90;;;;;;5013510;28;20683;-65
2022/08/17 10:13:58;;;;;;;6.22;4.80;;;25.30;99.90;;;;;;5002746;28;20568;-66
2022/08/17 10:16:44;;;;;;;6.82;4.70;;;25.30;99.90;;;;;;5013809;28;20278;-65
2022/08/17 10:19:23;;;;;;;10.00;4.40;;;25.30;99.90;;;;;;5014242;28;20160;-65
2022/08/17 10:27:53;;;;;;;7.13;5.13;;;25.20;99.90;;;;;;5013582;28;20544;-65
2022/08/17 10:30:22;;;;;;;7.00;4.43;;;25.10;99.90;;;;;;5028934;28;20234;-65
2022/08/17 10:32:56;;;;;;;7.25;4.20;;;25.00;99.90;;;;;;4996103;28;20715;-65
2022/08/17 10:35:40;;;;;;;9.38;4.50;;;25.00;99.90;;;;;;4995954;28;20176;-67
2022/08/17 10:38:24;;;;;;;6.60;4.43;;;24.90;99.90;;;;;;4995948;28;20191;-66
2022/08/17 10:41:27;;;;;;;6.20;4.60;;;24.90;99.90;;;;;;5013737;28;20199;-66
2022/08/17 10:44:28;;;;;;;7.25;4.70;;;24.90;99.90;;;;;;4996016;28;20191;-66
2022/08/17 10:47:11;;;;;;;8.52;5.00;;;24.80;99.90;;;;;;4996832;28;20174;-66
2022/08/17 10:49:46;;;;;;;6.05;4.90;;;24.80;99.90;;;;;;5029440;28;20168;-65
2022/08/17 10:52:29;;;;;;;8.15;4.53;;;24.80;99.90;;;;;;5014973;28;20162;-66
2022/08/17 10:54:57;;;;;;;6.93;4.75;;;24.80;99.90;;;;;;4999744;28;20180;-65
2022/08/17 10:57:26;;;;;;;9.48;4.97;;;24.80;99.90;;;;;;5016993;28;20215;-65
2022/08/17 10:59:53;;;;;;;7.05;4.90;;;24.90;99.90;;;;;;5017586;28;20653;-65
2022/08/17 11:02:30;;;;;;;8.95;5.30;;;24.90;99.90;;;;;;5017258;28;20168;-65
2022/08/17 11:04:56;;;;;;;7.70;5.40;;;24.90;99.90;;;;;;5017027;28;20210;-65
2022/08/17 11:07:37;;;;;;;7.75;5.18;;;24.80;99.90;;;;;;5016843;28;20187;-65
2022/08/17 11:10:24;;;;;;;15.43;6.57;;;24.60;99.90;;;;;;5017781;28;20620;-66
2022/08/17 11:13:05;;;;;;;11.20;5.75;;;24.60;99.90;;;;;;5017070;28;20669;-63
2022/08/17 11:15:55;;;;;;;7.70;5.32;;;24.50;99.90;;;;;;5017512;28;20240;-63
2022/08/17 11:18:49;;;;;;;7.40;5.57;;;24.40;99.90;;;;;;5016671;28;20167;-63
2022/08/17 11:21:24;;;;;;;10.60;5.72;;;24.40;99.90;;;;;;5016447;28;20214;-62
2022/08/17 11:23:58;;;;;;;9.68;6.22;;;24.30;99.90;;;;;;5016334;28;20213;-62
2022/08/17 11:26:36;;;;;;;8.98;6.13;;;24.30;99.90;;;;;;5016630;28;20532;-65
2022/08/17 11:29:15;;;;;;;9.02;5.65;;;24.20;99.90;;;;;;5016122;28;20194;-66
2022/08/17 11:31:45;;;;;;;10.48;6.13;;;24.20;99.90;;;;;;5016541;28;20191;-65
2022/08/17 11:34:22;;;;;;;12.07;6.82;;;24.20;99.90;;;;;;5016204;28;20171;-65
2022/08/17 11:37:07;;;;;;;11.48;6.10;;;24.20;99.90;;;;;;5016257;28;20349;-65
2022/08/17 11:40:09;;;;;;;10.07;5.60;;;24.20;99.90;;;;;;5016369;28;20156;-65
2022/08/17 11:42:47;;;;;;;9.73;6.78;;;24.20;99.90;;;;;;5015731;28;20250;-65
2022/08/17 11:45:24;;;;;;;7.93;6.05;;;24.30;99.90;;;;;;5016479;28;20565;-65
2022/08/17 11:51:33;;;;;;;11.45;6.70;;;24.40;99.90;;;;;;5015976;28;20223;-65
2022/08/17 11:54:16;;;;;;;10.55;6.95;;;24.50;99.90;;;;;;5016108;28;20156;-65
2022/08/17 11:56:50;;;;;;;9.45;6.60;;;24.60;99.90;;;;;;4997967;28;20227;-63
2022/08/17 11:59:44;;;;;;;10.77;6.47;;;24.80;99.90;;;;;;5015709;28;20171;-63
2022/08/17 12:02:33;;;;;;;12.20;6.80;;;25.00;99.90;;;;;;4998315;28;20649;-66
2022/08/17 12:05:15;;;;;;;9.52;7.45;;;25.00;99.90;;;;;;5015814;28;20221;-63
2022/08/17 12:08:03;;;;;;;13.32;7.40;;;25.00;99.90;;;;;;5015620;28;20183;-65
2022/08/17 12:10:33;;;;;;;11.10;7.57;;;25.00;99.90;;;;;;5014872;28;20588;-65
2022/08/17 12:13:05;;;;;;;9.65;6.70;;;25.10;99.90;;;;;;5030509;28;20167;-65
2022/08/17 12:15:38;;;;;;;10.38;7.43;;;25.20;99.90;;;;;;4997845;28;20262;-63
2022/08/17 12:18:04;;;;;;;15.88;8.15;;;25.20;99.90;;;;;;4997533;28;20234;-63
2022/08/17 12:20:37;;;;;;;14.75;8.70;;;25.30;99.90;;;;;;5015289;28;20264;-63
2022/08/17 12:23:28;;;;;;;12.13;8.00;;;25.50;99.90;;;;;;5015237;28;20179;-63
2022/08/17 12:26:03;;;;;;;17.40;8.05;;;25.90;99.90;;;;;;5016125;28;20505;-62
2022/08/17 12:28:32;;;;;;;10.82;8.20;;;26.10;99.90;;;;;;5015006;28;20166;-63
2022/08/17 12:31:02;;;;;;;14.40;8.55;;;26.00;99.90;;;;;;5015620;28;20226;-65
2022/08/17 12:33:28;;;;;;;9.65;7.72;;;26.00;99.90;;;;;;5015654;28;20190;-65
2022/08/17 12:36:01;;;;;;;10.02;7.65;;;26.40;99.90;;;;;;5015250;28;20164;-65
2022/08/17 12:38:33;;;;;;;11.80;7.88;;;26.80;99.90;;;;;;5015028;28;20191;-66
2022/08/17 12:41:25;;;;;;;13.32;7.97;;;26.80;99.90;;;;;;5014967;28;20188;-66
2022/08/17 12:44:00;;;;;;;11.70;7.68;;;26.80;99.90;;;;;;5014754;28;20546;-65
2022/08/17 12:46:28;;;;;;;11.98;7.78;;;26.70;99.90;;;;;;4997361;28;20176;-65
2022/08/17 12:49:10;;;;;;;16.73;9.70;;;26.70;99.90;;;;;;4997588;28;20234;-65
2022/08/17 12:51:40;;;;;;;13.95;8.82;;;26.70;99.90;;;;;;5015088;28;20188;-65
2022/08/17 12:54:15;;;;;;;13.48;9.25;;;26.70;99.90;;;;;;5015351;28;20164;-65
2022/08/17 12:56:44;;;;;;;11.90;8.10;;;26.70;99.90;;;;;;5029656;28;20222;-65
2022/08/17 12:59:10;;;;;;;10.75;9.15;;;26.90;99.90;;;;;;4996836;28;20172;-65
2022/08/17 13:01:40;;;;;;;10.25;9.02;;;27.60;99.90;;;;;;4996764;28;20283;-66
2022/08/17 13:04:10;;;;;;;13.25;9.60;;;28.30;99.90;;;;;;4996942;28;20172;-66
2022/08/17 13:06:36;;;;;;;12.32;9.00;;;28.90;99.90;;;;;;5014776;28;20329;-65
2022/08/17 13:09:17;;;;;;;14.63;10.15;;;29.20;99.90;;;;;;5015128;28;20637;-66
2022/08/17 13:11:49;;;;;;;14.30;9.93;;;29.70;99.90;;;;;;5014932;28;20275;-62
2022/08/17 13:14:17;;;;;;;12.60;9.73;;;29.70;99.90;;;;;;5014234;28;20172;-63
2022/08/17 13:16:54;;;;;;;12.98;9.65;;;29.40;99.90;;;;;;5014361;28;20200;-62
2022/08/17 13:19:22;;;;;;;15.75;9.77;;;29.20;99.90;;;;;;5015237;28;20175;-63
2022/08/17 13:21:57;;;;;;;23.40;9.30;;;29.20;99.90;;;;;;5015687;28;20192;-65
2022/08/17 13:24:32;;;;;;;13.45;11.18;;;29.40;99.90;;;;;;5014265;28;20206;-65
2022/08/17 13:26:58;;;;;;;12.07;9.82;;;29.40;99.90;;;;;;5015886;28;20536;-64
2022/08/17 13:29:23;;;;;;;19.20;12.30;;;29.90;99.90;;;;;;4997585;28;20183;-64
2022/08/17 13:31:57;;;;;;;15.50;11.32;;;29.70;99.90;;;;;;5016374;28;20255;-66
2022/08/17 13:34:23;;;;;;;23.88;11.13;;;29.30;99.90;;;;;;5017290;28;20160;-66
2022/08/17 13:36:51;;;;;;;16.25;12.10;;;29.00;99.90;;;;;;4998913;28;20216;-64
2022/08/17 13:39:18;;;;;;;14.23;10.50;;;29.30;99.90;;;;;;5014255;28;20649;-64
2022/08/17 13:41:45;;;;;;;17.80;12.25;;;29.30;99.90;;;;;;5013839;28;20196;-63